Time;durP1;ratioP1;P1;durP2;ratioP2;P2;SDS_P1;SDS_P2;PMS_P1;PMS_P2;Temp;Humidity;BMP_temperature;BMP_pressure;BME280_temperature;BME280_humidity;BME280_pressure;Samples;Min_cycle;Max_cycle;Signal;HPM_P1;HPM_P2
2023/09/15 00:00:39;;;;;;;;;6.67;6.00;;;;;21.06;70.72;100056.78;5064321;28;46236;-72
2023/09/15 00:03:05;;;;;;;;;8.33;7.00;;;;;21.16;70.71;100068.94;5061578;28;45512;-73
2023/09/15 00:05:33;;;;;;;;;7.67;6.67;;;;;21.10;70.85;100045.19;5052069;28;45343;-73
2023/09/15 00:08:04;;;;;;;;;7.00;6.00;;;;;21.11;71.24;100046.03;5060163;28;46073;-73
2023/09/15 00:10:37;;;;;;;;;8.00;6.67;;;;;21.15;71.02;100050.38;5059502;28;45516;-73
2023/09/15 00:13:03;;;;;;;;;7.00;7.00;;;;;21.17;71.00;100049.47;5059409;28;45822;-72
2023/09/15 00:15:28;;;;;;;;;5.67;5.67;;;;;21.13;70.62;100036.25;5059544;28;45411;-73
2023/09/15 00:17:57;;;;;;;;;5.33;5.00;;;;;21.13;70.50;100033.59;5063524;28;45534;-72
2023/09/15 00:20:24;;;;;;;;;6.00;5.00;;;;;21.14;70.29;100035.38;5053991;28;46315;-72
2023/09/15 00:22:52;;;;;;;;;7.67;7.67;;;;;21.12;70.91;100034.53;5059506;28;46671;-73
2023/09/15 00:25:26;;;;;;;;;6.00;5.33;;;;;21.13;70.21;100023.88;5072189;28;45843;-73
2023/09/15 00:27:54;;;;;;;;;7.00;6.67;;;;;21.10;70.35;100023.94;5063043;28;45523;-72
2023/09/15 00:30:24;;;;;;;;;6.33;4.67;;;;;21.09;70.52;100016.88;5075822;28;45355;-73
2023/09/15 00:32:50;;;;;;;;;7.00;6.00;;;;;21.11;70.48;100009.75;5060579;28;45494;-72
2023/09/15 00:35:18;;;;;;;;;9.33;9.33;;;;;21.10;70.78;99999.16;5074557;28;46131;-73
2023/09/15 00:37:46;;;;;;;;;7.33;6.00;;;;;21.07;70.77;99992.16;5059524;28;45605;-73
2023/09/15 00:40:12;;;;;;;;;6.00;5.00;;;;;21.10;71.06;99996.50;5059436;28;46213;-73
2023/09/15 00:42:38;;;;;;;;;5.00;4.33;;;;;21.08;70.87;99999.19;5059129;28;45572;-72
2023/09/15 00:45:06;;;;;;;;;6.33;6.33;;;;;21.06;70.94;99998.34;5059254;28;45481;-72
2023/09/15 00:47:35;;;;;;;;;6.00;6.00;;;;;20.95;70.48;99976.47;5051794;28;45595;-73
2023/09/15 00:50:05;;;;;;;;;6.00;5.67;;;;;21.01;70.34;99993.16;5078680;28;46160;-73
2023/09/15 00:52:33;;;;;;;;;8.00;6.67;;;;;20.98;71.03;99989.69;5071410;28;45192;-73
2023/09/15 00:55:00;;;;;;;;;6.00;6.00;;;;;20.94;70.75;99985.34;5063973;28;45950;-73
2023/09/15 00:57:27;;;;;;;;;7.00;6.00;;;;;20.96;71.02;99980.88;5058964;28;45463;-73
2023/09/15 00:59:53;;;;;;;;;8.33;7.00;;;;;20.97;71.10;99982.59;5058967;28;45584;-73
2023/09/15 01:02:20;;;;;;;;;8.33;8.33;;;;;20.94;70.82;99974.72;5058833;28;45467;-73
2023/09/15 01:04:46;;;;;;;;;5.33;5.33;;;;;20.87;70.80;99968.69;5058946;28;45500;-73
2023/09/15 01:07:12;;;;;;;;;6.00;5.00;;;;;20.84;70.79;99972.25;5059391;28;45633;-73
2023/09/15 01:09:39;;;;;;;;;6.00;5.67;;;;;20.88;71.12;99969.56;5075178;28;45543;-73
2023/09/15 01:12:07;;;;;;;;;7.00;6.00;;;;;20.83;70.97;99967.88;5058486;28;45330;-73
2023/09/15 01:14:34;;;;;;;;;5.67;5.33;;;;;20.83;70.87;99962.56;5059417;28;45443;-73
2023/09/15 01:17:12;;;;;;;;;4.00;4.00;;;;;20.87;71.01;99966.03;5066172;28;45480;-73
2023/09/15 01:19:58;;;;;;;;;5.00;5.00;;;;;20.86;70.62;99957.16;5065363;28;45502;-72
2023/09/15 01:22:51;;;;;;;;;4.67;4.67;;;;;20.84;70.94;99961.63;5076299;28;45572;-73
2023/09/15 01:25:39;;;;;;;;;5.67;5.00;;;;;20.86;70.66;99957.16;5066654;27;45447;-73
2023/09/15 01:28:24;;;;;;;;;5.33;5.33;;;;;20.71;71.01;99951.31;5065849;28;45529;-72
2023/09/15 01:30:51;;;;;;;;;5.33;5.33;;;;;20.65;70.64;99944.34;5073567;28;45457;-73
2023/09/15 01:33:18;;;;;;;;;6.00;6.00;;;;;20.65;70.84;99947.91;5058442;28;45482;-73
2023/09/15 01:35:44;;;;;;;;;6.00;6.00;;;;;20.68;70.93;99952.25;5058830;28;45384;-73
2023/09/15 01:38:09;;;;;;;;;6.67;6.00;;;;;20.73;71.42;99954.81;5050669;28;45589;-73
2023/09/15 01:40:37;;;;;;;;;6.00;6.00;;;;;20.66;71.06;99954.94;5056809;28;47740;-72
2023/09/15 01:43:03;;;;;;;;;8.33;7.33;;;;;20.63;71.29;99949.72;5058326;28;45272;-72
2023/09/15 01:45:30;;;;;;;;;6.00;5.67;;;;;20.60;71.33;99941.81;5050061;27;45284;-72
2023/09/15 01:47:57;;;;;;;;;8.00;6.00;;;;;20.62;71.70;99952.38;5057014;28;45371;-72
2023/09/15 01:50:25;;;;;;;;;5.67;5.67;;;;;20.60;71.21;99938.28;5040229;28;46378;-72
2023/09/15 01:52:51;;;;;;;;;5.33;5.00;;;;;20.56;71.04;99934.78;5067270;28;45492;-72
2023/09/15 01:55:18;;;;;;;;;6.33;6.33;;;;;20.62;70.81;99947.09;5078188;28;45517;-73
2023/09/15 01:57:43;;;;;;;;;7.33;7.00;;;;;20.61;70.74;99946.22;5065234;28;45374;-72
2023/09/15 02:00:10;;;;;;;;;6.67;6.67;;;;;20.45;71.19;99919.09;5057616;28;46203;-72
2023/09/15 02:02:35;;;;;;;;;6.00;6.00;;;;;20.51;71.63;99943.72;5074078;28;45417;-72
2023/09/15 02:05:01;;;;;;;;;7.00;6.33;;;;;20.53;71.45;99947.22;5075687;28;45374;-72
2023/09/15 02:07:27;;;;;;;;;7.67;6.00;;;;;20.52;71.25;99926.91;5062540;28;45303;-73
2023/09/15 02:09:52;;;;;;;;;6.33;6.33;;;;;20.55;71.40;99934.81;5043910;28;46968;-72
2023/09/15 02:12:18;;;;;;;;;7.33;7.00;;;;;20.54;71.55;99928.63;5077275;28;45478;-72
2023/09/15 02:14:44;;;;;;;;;7.00;6.00;;;;;20.44;71.42;99917.34;5067232;28;45236;-72
2023/09/15 02:17:14;;;;;;;;;9.67;7.67;;;;;20.48;71.70;99917.28;5052002;28;45265;-72
2023/09/15 02:19:41;;;;;;;;;5.67;5.33;;;;;20.43;71.96;99902.34;5059757;28;47014;-73
2023/09/15 02:22:08;;;;;;;;;6.67;5.67;;;;;20.45;71.32;99896.97;5078132;28;45461;-73
2023/09/15 02:24:33;;;;;;;;;6.67;5.33;;;;;20.41;71.21;99903.25;5078455;28;45568;-73
2023/09/15 02:27:00;;;;;;;;;8.67;8.33;;;;;20.44;71.05;99905.84;5078444;28;45493;-72
2023/09/15 02:29:25;;;;;;;;;8.33;7.00;;;;;20.42;70.97;99897.91;5078130;28;46086;-73
2023/09/15 02:31:51;;;;;;;;;5.67;5.00;;;;;20.48;71.00;99906.66;5078016;28;45461;-73
2023/09/15 02:34:17;;;;;;;;;9.33;7.00;;;;;20.36;70.91;99898.06;5078333;28;45424;-72
2023/09/15 02:36:43;;;;;;;;;7.00;6.00;;;;;20.35;71.48;99896.31;5077445;28;45648;-73
2023/09/15 02:39:09;;;;;;;;;5.67;5.67;;;;;20.35;71.34;99888.38;5077962;28;46054;-72
2023/09/15 02:41:35;;;;;;;;;7.00;6.00;;;;;20.40;71.54;99883.81;5077820;28;45796;-72
2023/09/15 02:44:01;;;;;;;;;5.67;5.33;;;;;20.42;71.15;99876.69;5077954;28;45539;-73
2023/09/15 02:46:26;;;;;;;;;8.33;7.00;;;;;20.26;71.45;99870.84;5078227;28;45373;-73
2023/09/15 02:48:52;;;;;;;;;6.00;6.00;;;;;20.31;71.40;99862.78;5076132;28;46113;-72
2023/09/15 02:51:18;;;;;;;;;6.00;6.00;;;;;20.36;71.19;99863.56;5039716;28;45454;-73
2023/09/15 02:53:43;;;;;;;;;7.00;7.00;;;;;20.30;72.18;99858.38;5057078;28;45552;-72
2023/09/15 02:56:09;;;;;;;;;6.67;5.67;;;;;20.30;71.99;99853.09;5039726;28;45342;-73
2023/09/15 02:58:35;;;;;;;;;8.33;6.67;;;;;20.33;72.23;99845.03;5057400;28;46312;-73
2023/09/15 03:01:13;;;;;;;;;6.67;5.67;;;;;20.31;71.77;99838.91;5056923;28;45374;-72
2023/09/15 03:03:38;;;;;;;;;5.67;5.33;;;;;20.29;71.96;99832.75;5057499;28;45355;-73
2023/09/15 03:06:05;;;;;;;;;6.00;5.00;;;;;20.44;71.28;99848.34;5059256;28;45381;-72
2023/09/15 03:08:31;;;;;;;;;5.33;5.33;;;;;20.40;71.37;99825.44;5077179;28;45441;-73
2023/09/15 03:10:57;;;;;;;;;6.00;5.67;;;;;20.49;71.10;99839.41;5076262;28;45425;-72
2023/09/15 03:13:22;;;;;;;;;6.33;6.33;;;;;20.52;70.90;99839.38;5077930;28;45558;-73
2023/09/15 03:15:48;;;;;;;;;4.67;3.67;;;;;20.49;70.68;99832.31;5078179;28;45487;-73
2023/09/15 03:18:13;;;;;;;;;7.00;6.00;;;;;20.47;71.33;99828.84;5065537;28;46194;-73
2023/09/15 03:20:39;;;;;;;;;6.33;5.67;;;;;20.41;71.08;99815.72;5057152;28;45367;-72
2023/09/15 03:23:05;;;;;;;;;8.00;6.67;;;;;20.48;71.13;99819.13;5057057;28;45537;-72
2023/09/15 03:25:30;;;;;;;;;5.67;5.00;;;;;20.46;71.06;99808.53;5057324;28;45476;-73
2023/09/15 03:27:56;;;;;;;;;9.00;7.00;;;;;20.56;71.02;99810.06;5056886;28;45407;-73
2023/09/15 03:30:22;;;;;;;;;6.33;6.33;;;;;20.61;70.97;99807.34;5056126;28;45391;-72
2023/09/15 03:32:47;;;;;;;;;7.00;7.00;;;;;20.58;71.13;99807.38;5057239;28;45301;-72
2023/09/15 03:35:14;;;;;;;;;7.00;7.00;;;;;20.62;71.09;99814.41;5039251;28;45327;-73
2023/09/15 03:37:40;;;;;;;;;5.67;5.67;;;;;20.63;71.10;99818.78;5060488;28;45387;-72
2023/09/15 03:40:08;;;;;;;;;7.33;7.00;;;;;20.65;70.50;99801.03;5076170;28;45477;-72
2023/09/15 03:42:35;;;;;;;;;6.00;5.00;;;;;20.64;70.82;99809.94;5076539;28;45523;-72
2023/09/15 03:45:00;;;;;;;;;5.00;5.00;;;;;20.68;70.44;99803.63;5076739;28;45409;-72
2023/09/15 03:47:26;;;;;;;;;6.67;6.33;;;;;20.72;70.68;99792.03;5075290;28;45381;-72
2023/09/15 03:49:52;;;;;;;;;5.33;5.00;;;;;20.81;70.21;99798.91;5056031;28;46111;-73
2023/09/15 03:52:17;;;;;;;;;6.33;6.00;;;;;20.78;70.54;99791.88;5058119;28;45512;-72
2023/09/15 03:54:43;;;;;;;;;8.00;6.33;;;;;20.89;69.91;99801.38;5076432;28;45366;-72
2023/09/15 03:57:09;;;;;;;;;7.00;7.00;;;;;20.90;69.92;99804.00;5076016;28;45418;-72
2023/09/15 03:59:36;;;;;;;;;5.00;5.00;;;;;20.96;69.53;99801.19;5076213;28;45538;-72
2023/09/15 04:02:05;;;;;;;;;7.00;7.00;;;;;21.03;69.39;99794.81;5076404;28;45362;-72
2023/09/15 04:04:30;;;;;;;;;5.00;5.00;;;;;20.95;69.62;99787.94;5076679;28;45299;-72
2023/09/15 04:06:56;;;;;;;;;6.33;6.33;;;;;21.05;69.75;99787.69;5073241;28;46026;-73
2023/09/15 04:09:24;;;;;;;;;6.00;6.00;;;;;21.01;69.51;99769.22;5058012;28;45473;-73
2023/09/15 04:11:51;;;;;;;;;7.33;6.00;;;;;21.08;68.76;99776.13;5076446;28;45604;-72
2023/09/15 04:14:17;;;;;;;;;6.00;5.00;;;;;21.04;68.70;99758.50;5073009;28;45393;-72
2023/09/15 04:16:43;;;;;;;;;7.00;6.00;;;;;21.13;68.49;99768.03;5057698;28;46672;-72
2023/09/15 04:19:08;;;;;;;;;6.33;6.33;;;;;21.18;68.38;99767.00;5065955;28;45468;-72
2023/09/15 04:21:37;;;;;;;;;6.33;6.33;;;;;21.19;68.74;99765.22;5077312;28;45325;-73
2023/09/15 04:24:03;;;;;;;;;6.00;5.67;;;;;21.14;68.75;99754.72;5079561;28;45485;-72
2023/09/15 04:26:29;;;;;;;;;4.67;4.00;;;;;21.12;69.22;99772.47;5079242;28;45985;-73
2023/09/15 04:28:54;;;;;;;;;6.00;6.00;;;;;21.12;69.58;99775.13;5079512;28;45249;-72
2023/09/15 04:31:20;;;;;;;;;6.00;6.00;;;;;21.05;68.42;99761.13;5061253;28;45478;-72
2023/09/15 04:33:48;;;;;;;;;6.33;6.33;;;;;21.15;68.73;99767.09;5079659;28;45345;-73
2023/09/15 04:36:14;;;;;;;;;9.33;9.00;;;;;21.24;68.15;99768.63;5078938;28;45407;-72
2023/09/15 04:38:39;;;;;;;;;6.00;5.00;;;;;21.29;68.03;99773.81;5079072;28;45557;-72
2023/09/15 04:41:05;;;;;;;;;7.67;7.00;;;;;21.12;67.28;99740.59;5060854;28;45424;-72
2023/09/15 04:43:31;;;;;;;;;6.00;6.00;;;;;21.40;67.71;99787.69;5079342;28;45542;-72
2023/09/15 04:45:57;;;;;;;;;5.33;5.33;;;;;21.48;67.75;99799.00;5079205;28;45368;-73
2023/09/15 04:48:23;;;;;;;;;6.33;6.00;;;;;21.42;68.04;99796.50;5067456;27;45863;-72
2023/09/15 04:50:48;;;;;;;;;6.00;6.00;;;;;21.47;66.82;99799.03;5079079;28;45469;-72
2023/09/15 04:53:15;;;;;;;;;7.00;6.00;;;;;21.52;66.73;99787.38;5078624;28;45466;-76
2023/09/15 04:55:41;;;;;;;;;5.00;5.00;;;;;21.59;67.21;99785.44;5078555;28;45573;-73
2023/09/15 04:58:06;;;;;;;;;7.00;6.67;;;;;21.66;67.00;99789.66;5078543;28;45493;-76
2023/09/15 05:00:34;;;;;;;;;7.00;7.00;;;;;21.68;66.07;99782.50;5078318;28;45307;-84
2023/09/15 05:03:00;;;;;;;;;6.00;6.00;;;;;21.83;64.82;99781.22;5079275;28;45312;-72
2023/09/15 05:05:26;;;;;;;;;7.00;6.00;;;;;21.96;64.77;99785.25;5078579;27;45569;-72
2023/09/15 05:07:52;;;;;;;;;5.00;5.00;;;;;22.00;64.64;99776.31;5068700;27;45709;-72
2023/09/15 05:10:18;;;;;;;;;7.00;5.33;;;;;22.05;65.13;99766.38;5078638;28;45495;-72
2023/09/15 05:12:44;;;;;;;;;7.00;7.00;;;;;22.14;65.43;99780.31;5059367;28;45340;-73
2023/09/15 05:15:11;;;;;;;;;7.33;7.00;;;;;22.10;65.53;99776.88;5078390;28;45311;-73
2023/09/15 05:17:37;;;;;;;;;6.67;6.67;;;;;22.12;66.14;99771.50;5072527;28;45497;-73
2023/09/15 05:20:03;;;;;;;;;7.00;7.00;;;;;22.08;65.35;99770.72;5066390;28;45600;-75
2023/09/15 05:22:29;;;;;;;;;7.00;5.00;;;;;21.96;65.40;99739.19;5078600;28;46069;-72
2023/09/15 05:24:55;;;;;;;;;6.00;5.00;;;;;22.20;65.03;99769.50;5078596;28;46105;-73
2023/09/15 05:27:21;;;;;;;;;8.00;6.67;;;;;22.26;65.32;99779.97;5078325;28;45501;-73
2023/09/15 05:29:47;;;;;;;;;6.33;5.33;;;;;22.21;65.27;99758.81;5078355;28;45482;-73
2023/09/15 05:32:12;;;;;;;;;7.00;6.00;;;;;22.28;65.26;99759.50;5075178;28;45462;-73
2023/09/15 05:34:38;;;;;;;;;5.00;5.00;;;;;22.37;64.83;99761.91;5077333;27;46055;-74
2023/09/15 05:37:04;;;;;;;;;9.00;6.00;;;;;22.30;65.42;99741.72;5078104;28;45311;-73
2023/09/15 05:39:32;;;;;;;;;5.00;4.33;;;;;22.40;65.08;99764.50;5078610;28;45328;-77
2023/09/15 05:41:58;;;;;;;;;6.33;6.33;;;;;22.42;64.42;99761.75;5078803;28;45434;-73
2023/09/15 05:44:24;;;;;;;;;5.67;5.67;;;;;22.43;64.18;99756.38;5077987;28;46558;-73
2023/09/15 05:46:52;;;;;;;;;9.00;7.00;;;;;22.51;63.48;99760.63;5076833;28;45379;-73
2023/09/15 05:49:17;;;;;;;;;4.33;4.33;;;;;22.57;63.62;99758.63;5077990;27;46001;-73
2023/09/15 05:51:43;;;;;;;;;6.67;6.33;;;;;22.60;62.54;99753.22;5077851;28;45370;-76
2023/09/15 05:54:09;;;;;;;;;8.67;7.00;;;;;22.66;63.81;99759.22;5077763;28;45381;-73
2023/09/15 05:56:35;;;;;;;;;5.67;5.00;;;;;22.69;63.38;99760.00;5077934;28;45342;-73
2023/09/15 05:59:01;;;;;;;;;6.33;6.00;;;;;22.77;62.58;99757.97;5059860;28;45479;-73
2023/09/15 06:01:26;;;;;;;;;7.33;6.67;;;;;22.72;62.58;99745.72;5078470;28;45351;-73
2023/09/15 06:03:52;;;;;;;;;7.00;6.00;;;;;22.87;62.50;99753.22;5074985;27;45687;-73
2023/09/15 06:06:18;;;;;;;;;8.33;7.33;;;;;23.05;61.43;99770.41;5077599;28;45542;-73
2023/09/15 06:08:44;;;;;;;;;8.33;7.67;;;;;23.11;60.93;99761.34;5077846;28;45504;-73
2023/09/15 06:11:10;;;;;;;;;8.00;7.00;;;;;23.21;60.54;99760.94;5077942;28;45572;-73
2023/09/15 06:13:37;;;;;;;;;5.33;5.00;;;;;23.39;59.18;99764.75;5077583;28;45878;-73
2023/09/15 06:16:06;;;;;;;;;6.67;6.00;;;;;23.46;59.61;99756.56;5077263;28;45489;-73
2023/09/15 06:18:32;;;;;;;;;7.00;6.33;;;;;23.57;58.55;99754.38;5075195;27;45291;-73
2023/09/15 06:20:58;;;;;;;;;10.00;9.00;;;;;23.66;58.97;99759.38;5059742;28;45532;-73
2023/09/15 06:23:24;;;;;;;;;8.00;6.00;;;;;23.81;58.01;99772.19;5077201;28;46266;-74
2023/09/15 06:25:51;;;;;;;;;8.00;8.00;;;;;23.82;57.86;99757.06;5077616;28;45383;-73
2023/09/15 06:28:17;;;;;;;;;9.00;9.00;;;;;23.97;58.08;99767.16;5077385;28;45492;-73
2023/09/15 06:30:43;;;;;;;;;6.00;6.00;;;;;24.06;57.34;99767.75;5077752;28;45288;-74
2023/09/15 06:33:08;;;;;;;;;5.00;5.00;;;;;24.16;56.75;99769.13;5074334;28;45666;-73
2023/09/15 06:35:34;;;;;;;;;6.33;6.00;;;;;24.24;56.11;99756.34;5077221;28;45576;-74
2023/09/15 06:38:01;;;;;;;;;7.33;7.00;;;;;24.48;56.24;99759.84;5077492;28;45568;-73
2023/09/15 06:40:26;;;;;;;;;5.00;4.67;;;;;24.64;54.71;99757.47;5059126;28;45510;-73
2023/09/15 06:42:52;;;;;;;;;7.00;6.00;;;;;24.94;53.33;99757.13;5076578;28;45965;-73
2023/09/15 06:45:18;;;;;;;;;6.00;6.00;;;;;25.15;53.77;99753.56;5076690;27;45446;-73
2023/09/15 06:47:43;;;;;;;;;7.00;6.00;;;;;25.42;53.55;99761.31;5076159;28;45389;-73
2023/09/15 06:50:09;;;;;;;;;7.00;6.00;;;;;25.65;53.32;99760.31;5077437;28;45403;-73
2023/09/15 06:52:35;;;;;;;;;5.00;5.00;;;;;25.86;51.51;99750.44;5076884;28;45344;-73
2023/09/15 06:55:00;;;;;;;;;8.33;7.67;;;;;26.23;51.64;99743.41;5059077;28;45497;-73
2023/09/15 06:57:26;;;;;;;;;6.33;5.33;;;;;27.04;51.11;99765.38;5077303;28;45717;-74
2023/09/15 06:59:52;;;;;;;;;6.67;5.67;;;;;27.37;51.85;99769.97;5077554;28;45526;-73
2023/09/15 07:02:18;;;;;;;;;5.67;5.33;;;;;27.24;52.70;99767.06;5077967;27;46167;-73
2023/09/15 07:04:43;;;;;;;;;7.00;6.00;;;;;27.10;50.55;99764.19;5060557;27;45447;-73
2023/09/15 07:07:10;;;;;;;;;6.67;6.67;;;;;27.10;51.50;99750.81;5056076;28;45402;-73
2023/09/15 07:09:35;;;;;;;;;6.00;5.33;;;;;27.28;50.73;99768.66;5061404;27;45529;-74
2023/09/15 07:12:01;;;;;;;;;6.67;6.00;;;;;27.37;50.35;99773.50;5077634;27;46465;-73
2023/09/15 07:14:27;;;;;;;;;5.00;5.00;;;;;27.42;50.22;99775.97;5077454;28;45315;-73
2023/09/15 07:16:53;;;;;;;;;7.00;7.00;;;;;27.47;50.00;99765.84;5077599;28;45446;-73
2023/09/15 07:19:18;;;;;;;;;5.00;5.00;;;;;27.46;50.91;99758.78;5058445;28;45348;-73
2023/09/15 07:21:44;;;;;;;;;6.00;6.00;;;;;27.50;49.36;99764.84;5057056;28;46169;-73
2023/09/15 07:24:11;;;;;;;;;5.00;5.00;;;;;27.53;50.31;99757.47;5057145;28;45331;-73
2023/09/15 07:26:37;;;;;;;;;8.00;8.00;;;;;27.60;49.98;99758.03;5056968;28;45480;-73
2023/09/15 07:29:06;;;;;;;;;7.00;6.33;;;;;27.51;49.79;99743.28;5057141;28;45281;-83
2023/09/15 07:31:35;;;;;;;;;5.00;5.00;;;;;27.53;50.11;99749.44;5071089;28;45334;-75
2023/09/15 07:34:02;;;;;;;;;7.67;7.33;;;;;27.52;50.78;99757.59;5076554;28;45219;-73
2023/09/15 07:36:28;;;;;;;;;7.00;7.00;;;;;27.47;49.96;99747.06;5077161;27;45850;-77
2023/09/15 07:38:54;;;;;;;;;5.33;5.00;;;;;27.53;49.05;99746.75;5073166;27;45469;-73
2023/09/15 07:41:21;;;;;;;;;4.67;4.67;;;;;27.67;48.77;99756.75;5071334;27;46167;-73
2023/09/15 07:43:47;;;;;;;;;5.00;5.00;;;;;27.76;48.67;99742.84;5075669;27;45464;-71
2023/09/15 07:46:15;;;;;;;;;6.00;6.00;;;;;27.96;48.79;99757.03;5075390;28;45493;-72
2023/09/15 07:48:43;;;;;;;;;7.00;6.00;;;;;28.02;48.66;99739.72;5057677;28;45589;-79
2023/09/15 07:51:11;;;;;;;;;5.00;4.67;;;;;28.09;47.61;99746.47;5073748;28;46242;-74
2023/09/15 07:53:37;;;;;;;;;5.33;5.33;;;;;28.15;46.97;99738.97;5075352;27;45582;-77
2023/09/15 07:56:03;;;;;;;;;4.67;4.67;;;;;28.30;47.01;99742.59;5076725;28;45484;-74
2023/09/15 07:58:29;;;;;;;;;5.00;5.00;;;;;28.31;46.72;99743.47;5079521;27;45327;-72
2023/09/15 08:00:57;;;;;;;;;4.00;4.00;;;;;28.44;47.15;99755.25;5061970;28;47127;-75
2023/09/15 08:03:22;;;;;;;;;5.33;5.33;;;;;28.26;51.80;99753.59;5053640;27;45881;-73
2023/09/15 08:05:48;;;;;;;;;7.00;6.00;;;;;28.52;51.31;99757.53;5079901;28;45359;-72
2023/09/15 08:08:14;;;;;;;;;7.33;7.00;;;;;28.92;51.28;99760.59;5080411;28;45354;-74
2023/09/15 08:10:39;;;;;;;;;5.33;5.33;;;;;29.08;50.30;99763.25;5078908;27;45453;-83
2023/09/15 08:13:05;;;;;;;;;4.00;4.00;;;;;29.12;49.91;99763.00;5078432;28;45435;-72
2023/09/15 08:15:31;;;;;;;;;7.00;6.00;;;;;29.36;47.19;99759.81;5078909;27;45435;-72
2023/09/15 08:17:57;;;;;;;;;5.00;5.00;;;;;29.46;45.63;99754.72;5079615;28;45546;-74
2023/09/15 08:20:23;;;;;;;;;4.33;4.00;;;;;29.55;43.89;99752.34;5079380;27;45419;-72
2023/09/15 08:22:49;;;;;;;;;7.00;6.00;;;;;29.57;46.92;99752.25;5060988;28;45362;-72
2023/09/15 08:25:15;;;;;;;;;5.67;5.00;;;;;29.55;47.98;99748.78;5079814;27;45323;-72
2023/09/15 08:27:44;;;;;;;;;6.00;6.00;;;;;29.52;49.11;99744.44;5061555;28;45563;-72
2023/09/15 08:30:10;;;;;;;;;7.00;6.33;;;;;29.64;47.88;99748.19;5078257;27;45405;-72
2023/09/15 08:32:36;;;;;;;;;5.00;5.00;;;;;29.78;46.39;99742.00;5079250;28;45482;-72
2023/09/15 08:35:03;;;;;;;;;6.00;6.00;;;;;29.84;45.22;99728.16;5079571;28;45458;-73
2023/09/15 08:37:30;;;;;;;;;6.00;6.00;;;;;29.81;42.93;99740.97;5079660;28;45342;-72
2023/09/15 08:39:55;;;;;;;;;5.00;4.33;;;;;29.85;44.64;99743.34;5079060;28;45398;-73
2023/09/15 08:42:25;;;;;;;;;5.00;5.00;;;;;30.05;44.31;99743.91;5079184;28;45582;-73
2023/09/15 08:44:52;;;;;;;;;6.00;6.00;;;;;30.21;44.14;99744.66;5079882;28;45927;-72
2023/09/15 08:47:20;;;;;;;;;4.00;3.33;;;;;30.11;42.83;99744.38;5079758;28;45478;-72
2023/09/15 08:49:46;;;;;;;;;4.00;4.00;;;;;30.22;42.44;99745.50;5061256;28;46424;-73
2023/09/15 08:52:17;;;;;;;;;6.00;5.33;;;;;30.35;42.21;99729.47;5079272;28;45439;-72
2023/09/15 08:54:45;;;;;;;;;4.00;4.00;;;;;30.80;41.83;99733.66;5079407;27;45522;-72
2023/09/15 08:57:11;;;;;;;;;6.00;5.33;;;;;31.20;42.45;99747.16;5060970;28;45542;-72
2023/09/15 08:59:38;;;;;;;;;5.67;4.00;;;;;31.38;41.74;99746.84;5079087;28;46045;-72
2023/09/15 09:02:04;;;;;;;;;3.00;3.00;;;;;31.27;40.31;99739.47;5078868;28;45696;-72
2023/09/15 09:04:30;;;;;;;;;3.00;3.00;;;;;31.00;39.44;99731.44;5078634;28;45534;-75
2023/09/15 09:07:02;;;;;;;;;3.33;3.33;;;;;30.95;40.46;99736.31;5074262;28;45481;-73
2023/09/15 09:09:29;;;;;;;;;4.33;4.33;;;;;31.04;41.03;99739.25;5039678;28;45368;-72
2023/09/15 09:11:55;;;;;;;;;4.67;4.00;;;;;31.06;41.67;99729.22;5058336;28;45466;-76
2023/09/15 09:14:22;;;;;;;;;4.33;4.00;;;;;31.13;41.92;99732.34;5058933;28;45466;-73
2023/09/15 09:16:48;;;;;;;;;4.00;4.00;;;;;31.15;41.49;99730.41;5040524;28;45471;-72
2023/09/15 09:19:14;;;;;;;;;3.33;3.33;;;;;31.08;41.89;99729.09;5058585;28;45976;-72
2023/09/15 09:21:40;;;;;;;;;5.00;4.00;;;;;31.04;40.97;99736.53;5039877;28;45252;-74
2023/09/15 09:24:09;;;;;;;;;5.33;4.00;;;;;30.84;40.17;99734.28;5058321;28;45402;-78
2023/09/15 09:26:35;;;;;;;;;4.67;4.67;;;;;30.75;41.00;99735.78;5039554;28;45254;-72
2023/09/15 09:29:02;;;;;;;;;5.00;5.00;;;;;30.72;41.68;99714.44;5057718;28;45485;-72
2023/09/15 09:31:29;;;;;;;;;3.33;3.33;;;;;30.58;40.51;99685.69;5070511;27;45477;-73
2023/09/15 09:33:57;;;;;;;;;3.67;3.67;;;;;30.47;40.80;99669.38;5077753;28;45490;-73
2023/09/15 09:36:23;;;;;;;;;5.33;4.00;;;;;30.78;41.73;99707.72;5077576;28;45497;-73
2023/09/15 09:38:50;;;;;;;;;3.67;3.67;;;;;30.81;41.69;99716.47;5077589;28;45341;-73
2023/09/15 09:41:20;;;;;;;;;4.00;4.00;;;;;30.75;41.55;99698.03;5060055;28;45349;-73
2023/09/15 09:43:46;;;;;;;;;4.00;4.00;;;;;30.85;40.52;99695.56;5077782;28;45340;-74
2023/09/15 09:46:13;;;;;;;;;4.67;4.00;;;;;30.98;40.83;99703.72;5059390;28;45490;-73
2023/09/15 09:48:39;;;;;;;;;4.00;4.00;;;;;30.86;41.15;99711.66;5077792;28;45500;-73
2023/09/15 09:51:06;;;;;;;;;4.00;3.33;;;;;30.74;40.62;99704.41;5077455;28;45461;-73
2023/09/15 09:53:34;;;;;;;;;4.33;4.00;;;;;30.88;41.02;99704.34;5059297;28;45504;-73
2023/09/15 09:56:06;;;;;;;;;3.00;3.00;;;;;31.12;40.70;99714.44;5078159;28;45868;-73
2023/09/15 09:58:33;;;;;;;;;3.33;3.33;;;;;31.03;39.45;99699.72;5076341;27;47044;-72
2023/09/15 10:01:00;;;;;;;;;3.00;2.67;;;;;31.16;38.94;99704.28;5064904;28;45343;-72
2023/09/15 10:03:26;;;;;;;;;6.33;6.00;;;;;31.29;39.40;99702.47;5039417;28;45395;-72
2023/09/15 10:05:52;;;;;;;;;4.00;4.00;;;;;31.25;39.05;99698.25;5057172;28;45482;-72
2023/09/15 10:08:18;;;;;;;;;6.00;5.00;;;;;31.15;39.16;99697.16;5057398;28;45477;-73
2023/09/15 10:10:46;;;;;;;;;4.00;4.00;;;;;31.31;39.79;99685.19;5057961;28;45476;-72
2023/09/15 10:13:15;;;;;;;;;5.33;5.00;;;;;31.64;39.48;99688.34;5058000;28;45490;-72
2023/09/15 10:15:41;;;;;;;;;5.00;4.00;;;;;31.86;37.60;99683.13;5058073;28;45523;-72
2023/09/15 10:18:09;;;;;;;;;5.00;4.33;;;;;32.00;37.39;99673.16;5057544;28;45288;-72
2023/09/15 10:20:37;;;;;;;;;4.00;4.00;;;;;32.45;38.17;99668.03;5057265;28;45331;-75
2023/09/15 10:23:05;;;;;;;;;4.33;4.33;;;;;32.84;36.08;99666.03;5057504;28;45319;-72
2023/09/15 10:25:47;;;;;;;;;4.67;4.67;;;;;33.27;36.26;99678.97;5058138;28;45320;-75
2023/09/15 10:28:14;;;;;;;;;4.67;4.00;;;;;33.81;36.02;99664.72;5057332;28;45449;-72
2023/09/15 10:30:40;;;;;;;;;3.00;3.00;;;;;34.34;34.54;99633.34;5046303;28;45564;-72
2023/09/15 10:33:10;;;;;;;;;4.67;4.00;;;;;35.22;34.19;99667.50;5076407;28;45476;-70
2023/09/15 10:35:39;;;;;;;;;3.33;3.00;;;;;35.75;33.34;99670.03;5077630;28;46228;-71
2023/09/15 10:38:06;;;;;;;;;4.00;4.00;;;;;36.04;33.14;99663.84;5077716;28;45292;-70
2023/09/15 10:40:45;;;;;;;;;4.00;4.00;;;;;36.24;31.97;99662.06;5078315;28;45290;-70
2023/09/15 10:43:12;;;;;;;;;4.00;4.00;;;;;36.56;32.08;99663.66;5078196;28;45538;-71
2023/09/15 10:45:38;;;;;;;;;4.00;4.00;;;;;37.01;31.76;99658.50;5078406;28;45426;-71
2023/09/15 10:48:04;;;;;;;;;6.00;5.00;;;;;37.45;30.41;99668.88;5077340;28;45500;-71
2023/09/15 10:50:39;;;;;;;;;7.33;7.00;;;;;37.60;31.72;99652.94;5077792;28;45556;-71
2023/09/15 10:53:12;;;;;;;;;3.00;3.00;;;;;37.44;30.08;99641.78;5077393;28;45339;-72
2023/09/15 10:55:38;;;;;;;;;3.00;3.00;;;;;37.30;30.18;99652.16;5077831;28;45394;-73
2023/09/15 10:58:06;;;;;;;;;5.00;4.00;;;;;36.98;30.66;99645.16;5077069;27;46181;-73
2023/09/15 11:00:32;;;;;;;;;4.67;4.00;;;;;36.53;31.66;99653.06;5076407;28;45473;-72
2023/09/15 11:02:58;;;;;;;;;9.00;9.00;;;;;36.23;32.08;99646.72;5075632;28;45422;-73
2023/09/15 11:05:27;;;;;;;;;5.00;4.33;;;;;35.99;32.57;99655.25;5074023;28;45736;-80
2023/09/15 11:07:55;;;;;;;;;3.33;2.67;;;;;35.44;32.34;99629.28;5058702;28;45575;-88
2023/09/15 11:10:27;;;;;;;;;6.33;6.33;;;;;35.28;33.60;99639.81;5076379;28;45355;-74
2023/09/15 11:13:02;;;;;;;;;3.33;3.33;;;;;35.32;33.58;99651.25;5076885;28;45509;-75
2023/09/15 11:15:28;;;;;;;;;5.00;4.00;;;;;35.32;34.14;99659.41;5056844;28;45512;-74
2023/09/15 11:17:54;;;;;;;;;4.00;4.00;;;;;35.24;33.47;99669.06;5076843;28;45937;-76
2023/09/15 11:20:20;;;;;;;;;5.00;5.00;;;;;35.09;33.04;99653.22;5077029;28;45387;-74
2023/09/15 11:22:46;;;;;;;;;4.00;4.00;;;;;35.06;33.38;99652.50;5058986;28;45603;-75
2023/09/15 11:25:13;;;;;;;;;5.00;5.00;;;;;35.18;33.40;99669.59;5059383;28;45553;-75
2023/09/15 11:27:39;;;;;;;;;4.33;4.00;;;;;35.19;33.98;99670.47;5075439;28;46845;-75
2023/09/15 11:30:05;;;;;;;;;5.00;5.00;;;;;35.01;34.60;99654.75;5073901;28;45267;-75
2023/09/15 11:32:34;;;;;;;;;4.00;4.00;;;;;34.88;34.64;99656.81;5055292;28;45355;-75